sensor_id;sensor_type;location;lat;lon;timestamp;P1;durP1;ratioP1;P2;durP2;ratioP2
83465;SDS011;73393;51.946;20.140;2024-03-22T00:00:55;45.10;;;29.63;;
83465;SDS011;73393;51.946;20.140;2024-03-22T00:03:20;51.08;;;29.90;;
83465;SDS011;73393;51.946;20.140;2024-03-22T00:05:46;46.97;;;30.50;;
83465;SDS011;73393;51.946;20.140;2024-03-22T00:08:12;48.47;;;30.37;;
83465;SDS011;73393;51.946;20.140;2024-03-22T00:10:38;45.47;;;28.77;;
83465;SDS011;73393;51.946;20.140;2024-03-22T00:13:04;47.93;;;30.57;;
83465;SDS011;73393;51.946;20.140;2024-03-22T00:15:29;46.55;;;29.25;;
83465;SDS011;73393;51.946;20.140;2024-03-22T00:17:55;46.57;;;29.87;;
83465;SDS011;73393;51.946;20.140;2024-03-22T00:20:20;51.33;;;32.37;;
83465;SDS011;73393;51.946;20.140;2024-03-22T00:22:46;49.40;;;30.17;;
83465;SDS011;73393;51.946;20.140;2024-03-22T00:25:11;48.67;;;31.10;;
83465;SDS011;73393;51.946;20.140;2024-03-22T00:27:37;54.40;;;32.93;;
83465;SDS011;73393;51.946;20.140;2024-03-22T00:30:02;47.23;;;31.33;;
83465;SDS011;73393;51.946;20.140;2024-03-22T00:32:29;52.30;;;31.53;;
83465;SDS011;73393;51.946;20.140;2024-03-22T00:34:55;48.87;;;30.53;;
83465;SDS011;73393;51.946;20.140;2024-03-22T00:37:20;50.33;;;31.40;;
83465;SDS011;73393;51.946;20.140;2024-03-22T00:39:46;48.40;;;30.30;;
83465;SDS011;73393;51.946;20.140;2024-03-22T00:42:13;58.53;;;33.17;;
83465;SDS011;73393;51.946;20.140;2024-03-22T00:44:39;50.50;;;31.88;;
83465;SDS011;73393;51.946;20.140;2024-03-22T00:47:04;45.33;;;31.60;;
83465;SDS011;73393;51.946;20.140;2024-03-22T00:49:30;52.63;;;30.30;;
83465;SDS011;73393;51.946;20.140;2024-03-22T00:51:56;46.73;;;29.43;;
83465;SDS011;73393;51.946;20.140;2024-03-22T00:54:22;49.53;;;31.50;;
83465;SDS011;73393;51.946;20.140;2024-03-22T00:56:48;48.17;;;29.33;;
83465;SDS011;73393;51.946;20.140;2024-03-22T00:59:13;46.13;;;30.47;;
83465;SDS011;73393;51.946;20.140;2024-03-22T01:01:39;48.22;;;31.80;;
83465;SDS011;73393;51.946;20.140;2024-03-22T01:04:05;49.47;;;31.10;;
83465;SDS011;73393;51.946;20.140;2024-03-22T01:06:30;46.57;;;28.63;;
83465;SDS011;73393;51.946;20.140;2024-03-22T01:08:56;43.53;;;27.80;;
83465;SDS011;73393;51.946;20.140;2024-03-22T01:11:21;44.30;;;29.97;;
83465;SDS011;73393;51.946;20.140;2024-03-22T01:13:47;54.17;;;30.42;;
83465;SDS011;73393;51.946;20.140;2024-03-22T01:16:12;40.47;;;26.67;;
83465;SDS011;73393;51.946;20.140;2024-03-22T01:18:38;41.40;;;27.13;;
83465;SDS011;73393;51.946;20.140;2024-03-22T01:21:04;44.13;;;28.77;;
83465;SDS011;73393;51.946;20.140;2024-03-22T01:23:30;47.13;;;28.60;;
83465;SDS011;73393;51.946;20.140;2024-03-22T01:25:56;43.73;;;27.83;;
83465;SDS011;73393;51.946;20.140;2024-03-22T01:28:22;43.63;;;27.77;;
83465;SDS011;73393;51.946;20.140;2024-03-22T01:30:47;46.30;;;29.20;;
83465;SDS011;73393;51.946;20.140;2024-03-22T01:33:13;39.07;;;26.00;;
83465;SDS011;73393;51.946;20.140;2024-03-22T01:35:39;43.80;;;27.27;;
83465;SDS011;73393;51.946;20.140;2024-03-22T01:38:04;43.37;;;27.47;;
83465;SDS011;73393;51.946;20.140;2024-03-22T01:40:30;43.77;;;26.53;;
83465;SDS011;73393;51.946;20.140;2024-03-22T01:42:56;37.80;;;25.43;;
83465;SDS011;73393;51.946;20.140;2024-03-22T01:45:22;43.77;;;26.00;;
83465;SDS011;73393;51.946;20.140;2024-03-22T01:47:49;41.90;;;27.03;;
83465;SDS011;73393;51.946;20.140;2024-03-22T01:50:16;40.92;;;26.20;;
83465;SDS011;73393;51.946;20.140;2024-03-22T01:52:41;38.60;;;25.53;;
83465;SDS011;73393;51.946;20.140;2024-03-22T01:55:07;42.90;;;27.20;;
83465;SDS011;73393;51.946;20.140;2024-03-22T01:57:33;39.67;;;25.80;;
83465;SDS011;73393;51.946;20.140;2024-03-22T01:59:59;42.17;;;27.33;;
83465;SDS011;73393;51.946;20.140;2024-03-22T02:02:25;38.60;;;25.80;;
83465;SDS011;73393;51.946;20.140;2024-03-22T02:04:51;39.13;;;25.40;;
83465;SDS011;73393;51.946;20.140;2024-03-22T02:07:16;34.03;;;22.97;;
83465;SDS011;73393;51.946;20.140;2024-03-22T02:09:43;43.10;;;24.90;;
83465;SDS011;73393;51.946;20.140;2024-03-22T02:12:09;40.60;;;26.47;;
83465;SDS011;73393;51.946;20.140;2024-03-22T02:14:35;45.80;;;25.80;;
83465;SDS011;73393;51.946;20.140;2024-03-22T02:17:01;37.77;;;24.43;;
83465;SDS011;73393;51.946;20.140;2024-03-22T02:19:28;39.73;;;25.20;;
83465;SDS011;73393;51.946;20.140;2024-03-22T02:21:54;43.30;;;26.70;;
83465;SDS011;73393;51.946;20.140;2024-03-22T02:24:19;42.07;;;27.40;;
83465;SDS011;73393;51.946;20.140;2024-03-22T02:26:45;42.27;;;25.83;;
83465;SDS011;73393;51.946;20.140;2024-03-22T02:29:10;51.70;;;32.37;;
83465;SDS011;73393;51.946;20.140;2024-03-22T02:31:36;48.03;;;31.07;;
83465;SDS011;73393;51.946;20.140;2024-03-22T02:34:03;39.40;;;25.50;;
83465;SDS011;73393;51.946;20.140;2024-03-22T02:36:28;43.07;;;24.23;;
83465;SDS011;73393;51.946;20.140;2024-03-22T02:38:54;37.43;;;23.83;;
83465;SDS011;73393;51.946;20.140;2024-03-22T02:41:20;39.20;;;23.43;;
83465;SDS011;73393;51.946;20.140;2024-03-22T02:43:46;34.27;;;22.10;;
83465;SDS011;73393;51.946;20.140;2024-03-22T02:46:12;33.03;;;22.00;;
83465;SDS011;73393;51.946;20.140;2024-03-22T02:48:37;37.73;;;22.37;;
83465;SDS011;73393;51.946;20.140;2024-03-22T02:51:03;31.17;;;19.33;;
83465;SDS011;73393;51.946;20.140;2024-03-22T02:53:29;25.90;;;17.57;;
83465;SDS011;73393;51.946;20.140;2024-03-22T02:55:54;27.77;;;18.63;;
83465;SDS011;73393;51.946;20.140;2024-03-22T02:58:20;30.20;;;18.33;;
83465;SDS011;73393;51.946;20.140;2024-03-22T03:00:46;28.83;;;17.90;;
83465;SDS011;73393;51.946;20.140;2024-03-22T03:03:12;30.90;;;16.83;;
83465;SDS011;73393;51.946;20.140;2024-03-22T03:05:38;29.57;;;18.17;;
83465;SDS011;73393;51.946;20.140;2024-03-22T03:08:03;27.87;;;17.67;;
83465;SDS011;73393;51.946;20.140;2024-03-22T03:10:29;31.83;;;19.27;;
83465;SDS011;73393;51.946;20.140;2024-03-22T03:12:55;31.30;;;18.90;;
83465;SDS011;73393;51.946;20.140;2024-03-22T03:15:21;28.43;;;18.83;;
83465;SDS011;73393;51.946;20.140;2024-03-22T03:17:46;31.17;;;19.60;;
83465;SDS011;73393;51.946;20.140;2024-03-22T03:20:12;29.03;;;19.43;;
83465;SDS011;73393;51.946;20.140;2024-03-22T03:22:39;28.27;;;19.13;;
83465;SDS011;73393;51.946;20.140;2024-03-22T03:25:05;29.87;;;19.40;;
83465;SDS011;73393;51.946;20.140;2024-03-22T03:27:31;31.33;;;19.33;;
83465;SDS011;73393;51.946;20.140;2024-03-22T03:29:57;30.47;;;18.67;;
83465;SDS011;73393;51.946;20.140;2024-03-22T03:32:23;30.47;;;18.83;;
83465;SDS011;73393;51.946;20.140;2024-03-22T03:34:49;27.07;;;17.33;;
83465;SDS011;73393;51.946;20.140;2024-03-22T03:37:15;29.13;;;18.53;;
83465;SDS011;73393;51.946;20.140;2024-03-22T03:39:41;26.50;;;16.10;;
83465;SDS011;73393;51.946;20.140;2024-03-22T03:42:07;26.00;;;17.23;;
83465;SDS011;73393;51.946;20.140;2024-03-22T03:44:32;23.83;;;14.50;;
83465;SDS011;73393;51.946;20.140;2024-03-22T03:46:59;21.43;;;14.93;;
83465;SDS011;73393;51.946;20.140;2024-03-22T03:49:26;23.27;;;16.03;;
83465;SDS011;73393;51.946;20.140;2024-03-22T03:51:51;20.70;;;14.37;;
83465;SDS011;73393;51.946;20.140;2024-03-22T03:54:17;21.73;;;14.77;;
83465;SDS011;73393;51.946;20.140;2024-03-22T03:56:43;22.67;;;14.43;;
83465;SDS011;73393;51.946;20.140;2024-03-22T03:59:08;21.50;;;14.33;;
83465;SDS011;73393;51.946;20.140;2024-03-22T04:01:34;21.13;;;12.57;;
83465;SDS011;73393;51.946;20.140;2024-03-22T04:03:59;21.97;;;13.67;;
83465;SDS011;73393;51.946;20.140;2024-03-22T04:06:25;19.53;;;12.60;;
83465;SDS011;73393;51.946;20.140;2024-03-22T04:08:51;19.43;;;12.67;;
83465;SDS011;73393;51.946;20.140;2024-03-22T04:11:16;20.73;;;13.50;;
83465;SDS011;73393;51.946;20.140;2024-03-22T04:13:42;20.30;;;13.30;;
83465;SDS011;73393;51.946;20.140;2024-03-22T04:16:07;19.60;;;12.50;;
83465;SDS011;73393;51.946;20.140;2024-03-22T04:18:33;19.70;;;13.23;;
83465;SDS011;73393;51.946;20.140;2024-03-22T04:20:59;20.60;;;12.93;;
83465;SDS011;73393;51.946;20.140;2024-03-22T04:23:26;23.03;;;13.47;;
83465;SDS011;73393;51.946;20.140;2024-03-22T04:25:59;20.50;;;13.97;;
83465;SDS011;73393;51.946;20.140;2024-03-22T04:28:26;24.70;;;15.83;;
83465;SDS011;73393;51.946;20.140;2024-03-22T04:33:28;28.40;;;18.10;;
83465;SDS011;73393;51.946;20.140;2024-03-22T04:35:54;30.50;;;18.77;;
83465;SDS011;73393;51.946;20.140;2024-03-22T04:38:21;28.57;;;18.43;;
83465;SDS011;73393;51.946;20.140;2024-03-22T04:40:47;30.27;;;19.17;;
83465;SDS011;73393;51.946;20.140;2024-03-22T04:43:13;32.90;;;20.80;;
83465;SDS011;73393;51.946;20.140;2024-03-22T04:45:41;27.87;;;19.00;;
83465;SDS011;73393;51.946;20.140;2024-03-22T04:48:12;32.00;;;19.77;;
83465;SDS011;73393;51.946;20.140;2024-03-22T04:50:38;29.83;;;20.43;;
83465;SDS011;73393;51.946;20.140;2024-03-22T04:53:03;34.63;;;22.77;;
83465;SDS011;73393;51.946;20.140;2024-03-22T04:55:30;33.57;;;21.13;;
83465;SDS011;73393;51.946;20.140;2024-03-22T04:57:56;39.67;;;23.37;;
83465;SDS011;73393;51.946;20.140;2024-03-22T05:00:22;38.63;;;23.80;;
83465;SDS011;73393;51.946;20.140;2024-03-22T05:02:49;34.07;;;23.17;;
83465;SDS011;73393;51.946;20.140;2024-03-22T05:05:16;39.57;;;25.23;;
83465;SDS011;73393;51.946;20.140;2024-03-22T05:07:41;37.90;;;24.13;;
83465;SDS011;73393;51.946;20.140;2024-03-22T05:10:07;43.20;;;24.83;;
83465;SDS011;73393;51.946;20.140;2024-03-22T05:12:34;39.27;;;24.40;;
83465;SDS011;73393;51.946;20.140;2024-03-22T05:14:59;42.70;;;25.93;;
83465;SDS011;73393;51.946;20.140;2024-03-22T05:17:25;40.70;;;24.83;;
83465;SDS011;73393;51.946;20.140;2024-03-22T05:19:51;42.30;;;26.80;;
83465;SDS011;73393;51.946;20.140;2024-03-22T05:22:18;43.50;;;28.03;;
83465;SDS011;73393;51.946;20.140;2024-03-22T05:24:45;44.60;;;25.30;;
83465;SDS011;73393;51.946;20.140;2024-03-22T05:27:10;41.00;;;26.47;;
83465;SDS011;73393;51.946;20.140;2024-03-22T05:29:37;39.83;;;26.87;;
83465;SDS011;73393;51.946;20.140;2024-03-22T05:32:03;41.97;;;26.83;;
83465;SDS011;73393;51.946;20.140;2024-03-22T05:34:29;43.67;;;25.33;;
83465;SDS011;73393;51.946;20.140;2024-03-22T05:36:55;46.60;;;27.10;;
83465;SDS011;73393;51.946;20.140;2024-03-22T05:39:20;40.30;;;25.53;;
83465;SDS011;73393;51.946;20.140;2024-03-22T05:41:46;44.40;;;28.57;;
83465;SDS011;73393;51.946;20.140;2024-03-22T05:44:12;41.73;;;27.60;;
83465;SDS011;73393;51.946;20.140;2024-03-22T05:46:37;40.10;;;26.00;;
83465;SDS011;73393;51.946;20.140;2024-03-22T05:49:03;45.20;;;26.67;;
83465;SDS011;73393;51.946;20.140;2024-03-22T05:51:29;39.63;;;25.60;;
83465;SDS011;73393;51.946;20.140;2024-03-22T05:53:57;39.67;;;26.00;;
83465;SDS011;73393;51.946;20.140;2024-03-22T05:56:22;41.37;;;25.97;;
83465;SDS011;73393;51.946;20.140;2024-03-22T05:58:48;37.33;;;24.43;;
83465;SDS011;73393;51.946;20.140;2024-03-22T06:01:14;42.23;;;26.40;;
83465;SDS011;73393;51.946;20.140;2024-03-22T06:03:39;44.83;;;28.80;;
83465;SDS011;73393;51.946;20.140;2024-03-22T06:06:05;39.50;;;25.03;;
83465;SDS011;73393;51.946;20.140;2024-03-22T06:08:31;44.57;;;27.93;;
83465;SDS011;73393;51.946;20.140;2024-03-22T06:10:59;41.50;;;25.80;;
83465;SDS011;73393;51.946;20.140;2024-03-22T06:13:25;39.53;;;26.90;;
83465;SDS011;73393;51.946;20.140;2024-03-22T06:15:51;41.53;;;26.13;;
83465;SDS011;73393;51.946;20.140;2024-03-22T06:18:17;45.30;;;27.60;;
83465;SDS011;73393;51.946;20.140;2024-03-22T06:20:42;45.17;;;27.93;;
83465;SDS011;73393;51.946;20.140;2024-03-22T06:23:08;42.73;;;27.20;;
83465;SDS011;73393;51.946;20.140;2024-03-22T06:25:34;43.90;;;27.97;;
83465;SDS011;73393;51.946;20.140;2024-03-22T06:28:00;39.47;;;26.57;;
83465;SDS011;73393;51.946;20.140;2024-03-22T06:30:26;40.23;;;25.53;;
83465;SDS011;73393;51.946;20.140;2024-03-22T06:32:52;39.43;;;24.93;;
83465;SDS011;73393;51.946;20.140;2024-03-22T06:35:21;37.57;;;24.13;;
83465;SDS011;73393;51.946;20.140;2024-03-22T06:37:47;38.27;;;24.73;;
83465;SDS011;73393;51.946;20.140;2024-03-22T06:40:13;36.87;;;22.83;;
83465;SDS011;73393;51.946;20.140;2024-03-22T06:42:39;32.37;;;20.33;;
83465;SDS011;73393;51.946;20.140;2024-03-22T06:45:05;32.80;;;21.93;;
83465;SDS011;73393;51.946;20.140;2024-03-22T06:47:31;33.50;;;22.07;;
83465;SDS011;73393;51.946;20.140;2024-03-22T06:49:57;32.60;;;22.63;;
83465;SDS011;73393;51.946;20.140;2024-03-22T06:52:23;32.30;;;21.53;;
83465;SDS011;73393;51.946;20.140;2024-03-22T06:54:48;29.17;;;20.50;;
83465;SDS011;73393;51.946;20.140;2024-03-22T06:57:14;31.00;;;19.80;;
83465;SDS011;73393;51.946;20.140;2024-03-22T06:59:40;28.80;;;19.20;;
83465;SDS011;73393;51.946;20.140;2024-03-22T07:02:05;28.30;;;18.20;;
83465;SDS011;73393;51.946;20.140;2024-03-22T07:04:31;30.33;;;20.57;;
83465;SDS011;73393;51.946;20.140;2024-03-22T07:06:56;27.20;;;18.27;;
83465;SDS011;73393;51.946;20.140;2024-03-22T07:09:23;28.50;;;18.17;;
83465;SDS011;73393;51.946;20.140;2024-03-22T07:11:49;32.27;;;19.57;;
83465;SDS011;73393;51.946;20.140;2024-03-22T07:14:15;26.90;;;18.87;;
83465;SDS011;73393;51.946;20.140;2024-03-22T07:16:41;27.00;;;17.20;;
83465;SDS011;73393;51.946;20.140;2024-03-22T07:19:08;30.07;;;18.10;;
83465;SDS011;73393;51.946;20.140;2024-03-22T07:21:33;26.47;;;16.93;;
83465;SDS011;73393;51.946;20.140;2024-03-22T07:23:59;26.57;;;17.90;;
83465;SDS011;73393;51.946;20.140;2024-03-22T07:26:24;29.70;;;18.97;;
83465;SDS011;73393;51.946;20.140;2024-03-22T07:28:50;30.73;;;18.83;;
83465;SDS011;73393;51.946;20.140;2024-03-22T07:31:16;27.83;;;18.40;;
83465;SDS011;73393;51.946;20.140;2024-03-22T07:33:41;30.80;;;20.33;;
83465;SDS011;73393;51.946;20.140;2024-03-22T07:36:07;38.03;;;24.50;;
83465;SDS011;73393;51.946;20.140;2024-03-22T07:38:32;30.73;;;18.87;;
83465;SDS011;73393;51.946;20.140;2024-03-22T07:40:58;36.37;;;22.27;;
83465;SDS011;73393;51.946;20.140;2024-03-22T07:43:24;26.30;;;16.27;;
83465;SDS011;73393;51.946;20.140;2024-03-22T07:45:49;22.58;;;14.75;;
83465;SDS011;73393;51.946;20.140;2024-03-22T07:48:15;24.67;;;17.17;;
83465;SDS011;73393;51.946;20.140;2024-03-22T07:50:40;23.98;;;16.92;;
83465;SDS011;73393;51.946;20.140;2024-03-22T07:53:06;22.25;;;14.30;;
83465;SDS011;73393;51.946;20.140;2024-03-22T07:55:32;20.00;;;13.70;;
83465;SDS011;73393;51.946;20.140;2024-03-22T07:57:58;18.27;;;11.77;;
83465;SDS011;73393;51.946;20.140;2024-03-22T08:00:24;13.77;;;11.30;;
83465;SDS011;73393;51.946;20.140;2024-03-22T08:02:52;17.63;;;12.07;;
83465;SDS011;73393;51.946;20.140;2024-03-22T08:05:18;20.43;;;12.87;;
83465;SDS011;73393;51.946;20.140;2024-03-22T08:07:44;16.07;;;11.07;;
83465;SDS011;73393;51.946;20.140;2024-03-22T08:10:10;21.83;;;14.02;;
83465;SDS011;73393;51.946;20.140;2024-03-22T08:12:35;19.00;;;13.17;;
83465;SDS011;73393;51.946;20.140;2024-03-22T08:15:01;22.83;;;16.30;;
83465;SDS011;73393;51.946;20.140;2024-03-22T08:17:27;19.03;;;11.70;;
83465;SDS011;73393;51.946;20.140;2024-03-22T08:19:53;20.77;;;12.82;;
83465;SDS011;73393;51.946;20.140;2024-03-22T08:22:19;16.93;;;11.47;;
83465;SDS011;73393;51.946;20.140;2024-03-22T08:24:44;16.70;;;11.33;;
83465;SDS011;73393;51.946;20.140;2024-03-22T08:27:10;16.55;;;11.55;;
83465;SDS011;73393;51.946;20.140;2024-03-22T08:29:36;14.10;;;10.00;;
83465;SDS011;73393;51.946;20.140;2024-03-22T08:32:02;17.73;;;10.93;;
83465;SDS011;73393;51.946;20.140;2024-03-22T08:34:29;16.97;;;11.77;;
83465;SDS011;73393;51.946;20.140;2024-03-22T08:36:58;17.02;;;12.00;;
83465;SDS011;73393;51.946;20.140;2024-03-22T08:39:24;15.83;;;11.50;;
83465;SDS011;73393;51.946;20.140;2024-03-22T08:41:50;16.25;;;11.70;;
83465;SDS011;73393;51.946;20.140;2024-03-22T08:44:16;28.98;;;17.00;;
83465;SDS011;73393;51.946;20.140;2024-03-22T08:46:43;20.80;;;13.90;;
83465;SDS011;73393;51.946;20.140;2024-03-22T08:49:08;44.95;;;24.80;;
83465;SDS011;73393;51.946;20.140;2024-03-22T08:51:34;22.73;;;13.63;;
83465;SDS011;73393;51.946;20.140;2024-03-22T08:54:00;13.40;;;8.93;;
83465;SDS011;73393;51.946;20.140;2024-03-22T08:56:29;12.20;;;8.00;;
83465;SDS011;73393;51.946;20.140;2024-03-22T08:58:54;23.37;;;12.57;;
83465;SDS011;73393;51.946;20.140;2024-03-22T09:01:20;13.73;;;8.80;;
83465;SDS011;73393;51.946;20.140;2024-03-22T09:03:47;12.83;;;7.67;;
83465;SDS011;73393;51.946;20.140;2024-03-22T09:06:16;11.73;;;7.55;;
83465;SDS011;73393;51.946;20.140;2024-03-22T09:08:41;12.85;;;7.38;;
83465;SDS011;73393;51.946;20.140;2024-03-22T09:11:07;13.40;;;9.00;;
83465;SDS011;73393;51.946;20.140;2024-03-22T09:13:32;12.45;;;8.23;;
83465;SDS011;73393;51.946;20.140;2024-03-22T09:16:00;13.40;;;8.68;;
83465;SDS011;73393;51.946;20.140;2024-03-22T09:18:26;13.13;;;8.15;;
83465;SDS011;73393;51.946;20.140;2024-03-22T09:20:52;13.38;;;7.40;;
83465;SDS011;73393;51.946;20.140;2024-03-22T09:23:19;10.18;;;7.07;;
83465;SDS011;73393;51.946;20.140;2024-03-22T09:25:45;10.73;;;7.70;;
83465;SDS011;73393;51.946;20.140;2024-03-22T09:28:12;13.73;;;8.68;;
83465;SDS011;73393;51.946;20.140;2024-03-22T09:30:38;12.18;;;7.55;;
83465;SDS011;73393;51.946;20.140;2024-03-22T09:33:08;14.18;;;9.07;;
83465;SDS011;73393;51.946;20.140;2024-03-22T09:35:34;19.10;;;11.75;;
83465;SDS011;73393;51.946;20.140;2024-03-22T09:38:00;14.57;;;9.80;;
83465;SDS011;73393;51.946;20.140;2024-03-22T09:40:26;12.52;;;7.65;;
83465;SDS011;73393;51.946;20.140;2024-03-22T09:42:52;18.50;;;10.95;;
83465;SDS011;73393;51.946;20.140;2024-03-22T09:45:18;15.05;;;10.10;;
83465;SDS011;73393;51.946;20.140;2024-03-22T09:47:45;14.15;;;8.63;;
83465;SDS011;73393;51.946;20.140;2024-03-22T09:50:12;15.37;;;9.37;;
83465;SDS011;73393;51.946;20.140;2024-03-22T09:52:39;23.93;;;14.17;;
83465;SDS011;73393;51.946;20.140;2024-03-22T09:55:08;18.83;;;10.85;;
83465;SDS011;73393;51.946;20.140;2024-03-22T09:57:35;17.13;;;10.70;;
83465;SDS011;73393;51.946;20.140;2024-03-22T10:00:05;14.23;;;9.20;;
83465;SDS011;73393;51.946;20.140;2024-03-22T10:02:32;14.85;;;9.80;;
83465;SDS011;73393;51.946;20.140;2024-03-22T10:04:59;14.23;;;9.70;;
83465;SDS011;73393;51.946;20.140;2024-03-22T10:07:25;13.02;;;8.88;;
83465;SDS011;73393;51.946;20.140;2024-03-22T10:09:57;12.80;;;8.85;;
83465;SDS011;73393;51.946;20.140;2024-03-22T10:12:25;11.63;;;8.50;;
83465;SDS011;73393;51.946;20.140;2024-03-22T10:14:54;16.77;;;9.70;;
83465;SDS011;73393;51.946;20.140;2024-03-22T10:17:21;19.27;;;9.50;;
83465;SDS011;73393;51.946;20.140;2024-03-22T10:19:48;15.32;;;10.00;;
83465;SDS011;73393;51.946;20.140;2024-03-22T10:22:15;15.77;;;9.65;;
83465;SDS011;73393;51.946;20.140;2024-03-22T10:24:42;11.52;;;7.70;;
83465;SDS011;73393;51.946;20.140;2024-03-22T10:27:08;11.60;;;7.63;;
83465;SDS011;73393;51.946;20.140;2024-03-22T10:29:35;16.53;;;8.80;;
83465;SDS011;73393;51.946;20.140;2024-03-22T10:32:01;12.00;;;8.48;;
83465;SDS011;73393;51.946;20.140;2024-03-22T10:34:28;13.18;;;8.63;;
83465;SDS011;73393;51.946;20.140;2024-03-22T10:36:55;14.05;;;9.25;;
83465;SDS011;73393;51.946;20.140;2024-03-22T10:39:23;23.83;;;14.50;;
83465;SDS011;73393;51.946;20.140;2024-03-22T10:41:50;43.28;;;25.02;;
83465;SDS011;73393;51.946;20.140;2024-03-22T10:44:15;19.42;;;12.65;;
83465;SDS011;73393;51.946;20.140;2024-03-22T10:46:44;21.80;;;14.75;;
83465;SDS011;73393;51.946;20.140;2024-03-22T10:49:20;15.93;;;9.90;;
83465;SDS011;73393;51.946;20.140;2024-03-22T10:51:48;14.23;;;9.40;;
83465;SDS011;73393;51.946;20.140;2024-03-22T10:54:19;12.23;;;8.10;;
83465;SDS011;73393;51.946;20.140;2024-03-22T10:56:47;14.88;;;9.45;;
83465;SDS011;73393;51.946;20.140;2024-03-22T10:59:14;12.55;;;8.52;;
83465;SDS011;73393;51.946;20.140;2024-03-22T11:01:45;16.35;;;9.75;;
83465;SDS011;73393;51.946;20.140;2024-03-22T11:04:11;14.63;;;8.73;;
83465;SDS011;73393;51.946;20.140;2024-03-22T11:06:37;12.00;;;8.73;;
83465;SDS011;73393;51.946;20.140;2024-03-22T11:09:03;14.23;;;11.02;;
83465;SDS011;73393;51.946;20.140;2024-03-22T11:11:29;14.48;;;9.80;;
83465;SDS011;73393;51.946;20.140;2024-03-22T11:13:56;12.70;;;9.45;;
83465;SDS011;73393;51.946;20.140;2024-03-22T11:16:22;13.20;;;9.43;;
83465;SDS011;73393;51.946;20.140;2024-03-22T11:18:47;12.63;;;9.20;;
83465;SDS011;73393;51.946;20.140;2024-03-22T11:21:14;14.68;;;9.90;;
83465;SDS011;73393;51.946;20.140;2024-03-22T11:23:40;14.52;;;9.10;;
83465;SDS011;73393;51.946;20.140;2024-03-22T11:26:06;12.38;;;8.05;;
83465;SDS011;73393;51.946;20.140;2024-03-22T11:28:33;13.50;;;9.23;;
83465;SDS011;73393;51.946;20.140;2024-03-22T11:30:58;13.63;;;9.73;;
83465;SDS011;73393;51.946;20.140;2024-03-22T11:33:24;15.90;;;10.38;;
83465;SDS011;73393;51.946;20.140;2024-03-22T11:35:52;22.90;;;13.02;;
83465;SDS011;73393;51.946;20.140;2024-03-22T11:38:18;19.98;;;12.60;;
83465;SDS011;73393;51.946;20.140;2024-03-22T11:40:44;17.08;;;11.60;;
83465;SDS011;73393;51.946;20.140;2024-03-22T11:43:10;16.17;;;10.63;;
83465;SDS011;73393;51.946;20.140;2024-03-22T11:45:36;13.85;;;9.60;;
83465;SDS011;73393;51.946;20.140;2024-03-22T11:48:02;15.55;;;11.90;;
83465;SDS011;73393;51.946;20.140;2024-03-22T11:50:28;18.63;;;12.00;;
83465;SDS011;73393;51.946;20.140;2024-03-22T11:52:54;17.00;;;10.65;;
83465;SDS011;73393;51.946;20.140;2024-03-22T11:55:22;16.58;;;11.25;;
83465;SDS011;73393;51.946;20.140;2024-03-22T11:57:52;18.17;;;11.57;;
83465;SDS011;73393;51.946;20.140;2024-03-22T12:00:18;14.93;;;10.68;;
83465;SDS011;73393;51.946;20.140;2024-03-22T12:02:44;16.30;;;10.23;;
83465;SDS011;73393;51.946;20.140;2024-03-22T12:05:12;16.55;;;11.50;;
83465;SDS011;73393;51.946;20.140;2024-03-22T12:07:37;14.10;;;10.18;;
83465;SDS011;73393;51.946;20.140;2024-03-22T12:10:05;13.13;;;9.98;;
83465;SDS011;73393;51.946;20.140;2024-03-22T12:12:31;13.68;;;8.85;;
83465;SDS011;73393;51.946;20.140;2024-03-22T12:14:57;17.45;;;11.10;;
83465;SDS011;73393;51.946;20.140;2024-03-22T12:17:23;15.52;;;10.50;;
83465;SDS011;73393;51.946;20.140;2024-03-22T12:19:48;16.08;;;9.82;;
83465;SDS011;73393;51.946;20.140;2024-03-22T12:22:14;13.60;;;9.98;;
83465;SDS011;73393;51.946;20.140;2024-03-22T12:24:39;15.52;;;10.07;;
83465;SDS011;73393;51.946;20.140;2024-03-22T12:27:05;17.10;;;10.55;;
83465;SDS011;73393;51.946;20.140;2024-03-22T12:29:34;17.35;;;11.50;;
83465;SDS011;73393;51.946;20.140;2024-03-22T12:32:00;18.17;;;12.20;;
83465;SDS011;73393;51.946;20.140;2024-03-22T12:34:28;18.88;;;12.45;;
83465;SDS011;73393;51.946;20.140;2024-03-22T12:36:55;17.30;;;11.82;;
83465;SDS011;73393;51.946;20.140;2024-03-22T12:39:20;17.98;;;12.57;;
83465;SDS011;73393;51.946;20.140;2024-03-22T12:41:46;17.48;;;12.43;;
83465;SDS011;73393;51.946;20.140;2024-03-22T12:44:12;16.27;;;10.70;;
83465;SDS011;73393;51.946;20.140;2024-03-22T12:46:37;18.73;;;11.52;;
83465;SDS011;73393;51.946;20.140;2024-03-22T12:49:03;18.48;;;12.23;;
83465;SDS011;73393;51.946;20.140;2024-03-22T12:51:29;19.58;;;12.50;;
83465;SDS011;73393;51.946;20.140;2024-03-22T12:53:55;17.52;;;12.32;;
83465;SDS011;73393;51.946;20.140;2024-03-22T12:56:20;17.52;;;11.63;;
83465;SDS011;73393;51.946;20.140;2024-03-22T12:58:46;17.55;;;12.75;;
83465;SDS011;73393;51.946;20.140;2024-03-22T13:01:12;17.85;;;12.32;;
83465;SDS011;73393;51.946;20.140;2024-03-22T13:03:38;17.90;;;12.70;;
83465;SDS011;73393;51.946;20.140;2024-03-22T13:06:05;17.77;;;12.85;;
83465;SDS011;73393;51.946;20.140;2024-03-22T13:08:31;19.73;;;12.02;;
83465;SDS011;73393;51.946;20.140;2024-03-22T13:10:57;36.38;;;17.98;;
83465;SDS011;73393;51.946;20.140;2024-03-22T13:13:23;28.15;;;16.33;;
83465;SDS011;73393;51.946;20.140;2024-03-22T13:15:49;18.52;;;10.65;;
83465;SDS011;73393;51.946;20.140;2024-03-22T13:18:14;16.85;;;10.77;;
83465;SDS011;73393;51.946;20.140;2024-03-22T13:20:40;18.20;;;12.15;;
83465;SDS011;73393;51.946;20.140;2024-03-22T13:23:06;18.27;;;11.57;;
83465;SDS011;73393;51.946;20.140;2024-03-22T13:25:34;17.30;;;11.40;;
83465;SDS011;73393;51.946;20.140;2024-03-22T13:28:01;18.08;;;12.25;;
83465;SDS011;73393;51.946;20.140;2024-03-22T13:30:33;18.15;;;11.57;;
83465;SDS011;73393;51.946;20.140;2024-03-22T13:33:00;17.25;;;13.52;;
83465;SDS011;73393;51.946;20.140;2024-03-22T13:35:26;25.00;;;15.93;;
83465;SDS011;73393;51.946;20.140;2024-03-22T13:37:51;43.65;;;28.80;;
83465;SDS011;73393;51.946;20.140;2024-03-22T13:40:17;23.25;;;15.65;;
83465;SDS011;73393;51.946;20.140;2024-03-22T13:42:43;20.98;;;14.45;;
83465;SDS011;73393;51.946;20.140;2024-03-22T13:45:08;17.92;;;12.75;;
83465;SDS011;73393;51.946;20.140;2024-03-22T13:47:34;27.20;;;18.15;;
83465;SDS011;73393;51.946;20.140;2024-03-22T13:50:02;26.08;;;16.55;;
83465;SDS011;73393;51.946;20.140;2024-03-22T13:52:29;25.30;;;15.93;;
83465;SDS011;73393;51.946;20.140;2024-03-22T13:54:56;35.80;;;21.00;;
83465;SDS011;73393;51.946;20.140;2024-03-22T13:57:22;25.58;;;15.80;;
83465;SDS011;73393;51.946;20.140;2024-03-22T13:59:49;36.20;;;21.70;;
83465;SDS011;73393;51.946;20.140;2024-03-22T14:02:15;26.10;;;15.93;;
83465;SDS011;73393;51.946;20.140;2024-03-22T14:04:40;22.37;;;14.37;;
83465;SDS011;73393;51.946;20.140;2024-03-22T14:07:06;30.50;;;19.30;;